createdAt,value
2019-03-18T00:01:45.443Z,1.70
2019-03-18T00:04:12.650Z,1.80
2019-03-18T00:06:40.007Z,1.50
2019-03-18T00:09:07.204Z,1.40
2019-03-18T00:11:34.473Z,1.93
2019-03-18T00:14:01.662Z,1.40
2019-03-18T00:16:28.927Z,1.57
2019-03-18T00:18:56.111Z,2.13
2019-03-18T00:21:23.285Z,1.63
2019-03-18T00:23:50.496Z,1.50
2019-03-18T00:26:17.750Z,1.50
2019-03-18T00:28:44.921Z,1.33
2019-03-18T00:31:12.093Z,1.77
2019-03-18T00:33:39.314Z,2.40
2019-03-18T00:36:07.138Z,2.57
2019-03-18T00:38:34.387Z,1.40
2019-03-18T00:41:01.599Z,1.43
2019-03-18T00:43:28.818Z,1.80
2019-03-18T00:45:56.060Z,1.47
2019-03-18T00:48:23.303Z,1.57
2019-03-18T00:50:50.501Z,1.73
2019-03-18T00:53:17.771Z,1.63
2019-03-18T00:55:44.995Z,1.77
2019-03-18T00:58:12.227Z,1.83
2019-03-18T01:00:39.493Z,1.50
2019-03-18T01:03:06.814Z,1.50
2019-03-18T01:05:34.026Z,1.83
2019-03-18T01:08:01.276Z,1.20
2019-03-18T01:10:28.521Z,1.60
2019-03-18T01:12:55.741Z,2.07
2019-03-18T01:15:28.287Z,1.83
2019-03-18T01:17:52.142Z,1.70
2019-03-18T01:20:19.435Z,1.70
2019-03-18T01:22:46.698Z,1.67
2019-03-18T01:25:13.949Z,1.50
2019-03-18T01:27:41.170Z,1.40
2019-03-18T01:30:08.394Z,1.50
2019-03-18T01:32:35.663Z,1.50
2019-03-18T01:35:02.923Z,1.73
2019-03-18T01:37:30.127Z,1.50
2019-03-18T01:39:57.456Z,1.67
2019-03-18T01:42:24.645Z,1.53
2019-03-18T01:44:51.943Z,2.07
2019-03-18T01:47:19.156Z,1.50
2019-03-18T01:49:46.422Z,1.67
2019-03-18T01:52:13.661Z,1.73
2019-03-18T01:54:40.962Z,1.80
2019-03-18T01:57:08.179Z,1.43
2019-03-18T01:59:35.596Z,1.13
2019-03-18T02:02:02.775Z,1.40
2019-03-18T02:04:30.125Z,1.53
2019-03-18T02:06:57.467Z,1.67
2019-03-18T02:09:24.718Z,2.00
2019-03-18T02:11:52.081Z,1.40
2019-03-18T02:14:19.328Z,1.30
2019-03-18T02:16:46.541Z,1.73
2019-03-18T02:19:13.890Z,1.67
2019-03-18T02:21:41.228Z,1.60
2019-03-18T02:24:08.582Z,1.43
2019-03-18T02:26:35.793Z,1.70
2019-03-18T02:29:03.109Z,1.50
2019-03-18T02:31:30.380Z,1.30
2019-03-18T02:33:57.807Z,1.50
2019-03-18T02:36:25.026Z,1.27
2019-03-18T02:38:52.341Z,1.60
2019-03-18T02:41:19.664Z,1.63
2019-03-18T02:43:47.001Z,1.40
2019-03-18T02:46:14.277Z,1.70
2019-03-18T02:48:41.446Z,1.70
2019-03-18T02:51:08.670Z,1.70
2019-03-18T02:53:35.894Z,1.50
2019-03-18T02:56:03.063Z,1.70
2019-03-18T02:58:30.408Z,1.30
2019-03-18T03:00:57.678Z,1.80
2019-03-18T03:03:24.862Z,1.60
2019-03-18T03:05:52.197Z,1.60
2019-03-18T03:08:19.419Z,1.40
2019-03-18T03:10:46.662Z,1.47
2019-03-18T03:13:13.875Z,1.60
2019-03-18T03:15:41.141Z,1.60
2019-03-18T03:18:08.301Z,1.40
2019-03-18T03:20:35.632Z,1.30
2019-03-18T03:23:02.886Z,1.30
2019-03-18T03:25:30.060Z,1.53
2019-03-18T03:27:57.346Z,1.80
2019-03-18T03:30:24.698Z,1.47
2019-03-18T03:32:51.908Z,1.77
2019-03-18T03:35:19.147Z,1.50
2019-03-18T03:37:46.409Z,1.37
2019-03-18T03:40:13.683Z,1.67
2019-03-18T03:42:40.879Z,1.50
2019-03-18T03:45:08.267Z,1.53
2019-03-18T03:47:35.459Z,1.30
2019-03-18T03:50:02.711Z,1.50
2019-03-18T03:52:29.984Z,1.50
2019-03-18T03:54:57.181Z,1.50
2019-03-18T03:57:24.400Z,1.80
2019-03-18T03:59:51.646Z,1.60
2019-03-18T04:02:18.834Z,1.60
2019-03-18T04:04:46.182Z,1.83
2019-03-18T04:07:13.499Z,1.70
2019-03-18T04:09:40.805Z,1.43
2019-03-18T04:12:08.153Z,1.57
2019-03-18T04:14:35.339Z,1.70
2019-03-18T04:17:03.056Z,1.60
2019-03-18T04:19:30.496Z,1.70
2019-03-18T04:21:57.710Z,1.50
2019-03-18T04:24:25.237Z,1.60
2019-03-18T04:26:52.534Z,1.30
2019-03-18T04:29:21.744Z,1.60
2019-03-18T04:31:49.154Z,1.70
2019-03-18T04:34:16.437Z,1.67
2019-03-18T04:36:43.715Z,2.00
2019-03-18T04:39:10.913Z,1.80
2019-03-18T04:41:38.223Z,1.97
2019-03-18T04:44:05.550Z,1.33
2019-03-18T04:46:32.761Z,1.57
2019-03-18T04:48:59.974Z,2.00
2019-03-18T04:51:27.210Z,2.57
2019-03-18T04:53:54.454Z,1.80
2019-03-18T04:56:21.713Z,2.63
2019-03-18T04:58:48.978Z,2.20
2019-03-18T05:01:16.225Z,2.23
2019-03-18T05:03:43.534Z,2.03
2019-03-18T05:06:10.885Z,2.10
2019-03-18T05:08:38.098Z,2.67
2019-03-18T05:11:05.462Z,2.20
2019-03-18T05:13:32.669Z,2.10
2019-03-18T05:15:59.867Z,2.13
2019-03-18T05:18:27.098Z,2.13
2019-03-18T05:20:54.341Z,2.40
2019-03-18T05:23:21.587Z,1.70
2019-03-18T05:25:48.831Z,2.10
2019-03-18T05:28:16.061Z,2.13
2019-03-18T05:30:43.296Z,2.93
2019-03-18T05:33:10.813Z,2.23
2019-03-18T05:35:38.306Z,2.37
2019-03-18T05:38:05.659Z,2.63
2019-03-18T05:40:33.097Z,2.70
2019-03-18T05:43:00.313Z,2.40
2019-03-18T05:45:27.504Z,2.93
2019-03-18T05:47:54.697Z,2.60
2019-03-18T05:50:21.965Z,2.50
2019-03-18T05:52:49.155Z,2.70
2019-03-18T05:55:16.427Z,2.90
2019-03-18T05:57:43.630Z,2.73
2019-03-18T06:00:10.883Z,2.80
2019-03-18T06:02:38.068Z,3.70
2019-03-18T06:05:05.681Z,2.90
2019-03-18T06:07:32.868Z,3.03
2019-03-18T06:10:00.052Z,3.23
2019-03-18T06:12:27.380Z,2.73
2019-03-18T06:14:54.974Z,2.90
2019-03-18T06:17:25.067Z,4.37
2019-03-18T06:19:52.398Z,3.27
2019-03-18T06:22:19.722Z,3.57
2019-03-18T06:24:47.090Z,3.60
2019-03-18T06:27:14.502Z,3.40
2019-03-18T06:29:41.739Z,3.10
2019-03-18T06:32:08.940Z,3.57
2019-03-18T06:34:36.119Z,3.00
2019-03-18T06:37:04.022Z,3.00
2019-03-18T06:39:31.242Z,4.60
2019-03-18T06:41:58.469Z,3.60
2019-03-18T06:44:25.712Z,2.80
2019-03-18T06:46:52.935Z,3.07
2019-03-18T06:49:20.254Z,4.10
2019-03-18T06:51:47.536Z,4.47
2019-03-18T06:54:14.737Z,2.47
2019-03-18T06:56:41.974Z,2.60
2019-03-18T06:59:09.206Z,3.33
2019-03-18T07:01:36.426Z,2.90
2019-03-18T07:04:03.649Z,3.60
2019-03-18T07:06:30.851Z,2.80
2019-03-18T07:09:01.136Z,3.50
2019-03-18T07:11:28.387Z,3.80
2019-03-18T07:13:55.613Z,3.60
2019-03-18T07:16:22.804Z,3.50
2019-03-18T07:18:50.080Z,3.77
2019-03-18T07:21:17.271Z,3.60
2019-03-18T07:23:44.474Z,3.93
2019-03-18T07:26:11.702Z,3.60
2019-03-18T07:28:38.970Z,4.70
2019-03-18T07:31:06.185Z,4.03
2019-03-18T07:33:33.404Z,4.00
2019-03-18T07:36:00.599Z,4.13
2019-03-18T07:38:27.847Z,4.03
2019-03-18T07:40:55.338Z,3.93
2019-03-18T07:43:22.771Z,3.87
2019-03-18T07:45:50.005Z,4.70
2019-03-18T07:48:29.999Z,4.03
2019-03-18T07:50:46.369Z,4.13
2019-03-18T07:53:13.688Z,3.40
2019-03-18T07:55:40.972Z,3.53
2019-03-18T07:58:08.373Z,3.63
2019-03-18T08:00:35.824Z,4.10
2019-03-18T08:03:03.863Z,3.27
2019-03-18T08:05:31.095Z,3.73
2019-03-18T08:07:58.385Z,3.60
2019-03-18T08:10:25.947Z,3.73
2019-03-18T08:12:53.589Z,4.10
2019-03-18T08:15:20.783Z,2.90
2019-03-18T08:17:48.008Z,3.60
2019-03-18T08:20:15.234Z,3.80
2019-03-18T08:22:42.925Z,2.87
2019-03-18T08:25:10.353Z,3.37
2019-03-18T08:27:37.766Z,4.00
2019-03-18T08:30:05.161Z,3.03
2019-03-18T08:32:32.380Z,4.43
2019-03-18T08:34:59.679Z,4.00
2019-03-18T08:37:26.984Z,3.30
2019-03-18T08:39:54.544Z,3.60
2019-03-18T08:42:23.411Z,3.77
2019-03-18T08:44:50.932Z,2.60
2019-03-18T08:47:18.138Z,3.73
2019-03-18T08:49:45.514Z,3.47
2019-03-18T08:52:12.829Z,3.90
2019-03-18T08:54:40.011Z,4.43
2019-03-18T08:57:07.527Z,3.27
2019-03-18T08:59:34.711Z,3.13
2019-03-18T09:02:01.979Z,3.40
2019-03-18T09:04:29.243Z,3.00
2019-03-18T09:06:56.424Z,3.87
2019-03-18T09:09:23.619Z,2.90
2019-03-18T09:11:50.871Z,2.83
2019-03-18T09:14:18.398Z,2.83
2019-03-18T09:16:47.000Z,3.10
2019-03-18T09:19:14.508Z,3.07
2019-03-18T09:21:42.417Z,2.50
2019-03-18T09:24:09.990Z,3.17
2019-03-18T09:26:37.606Z,3.77
2019-03-18T09:29:05.081Z,3.40
2019-03-18T09:31:32.658Z,3.63
2019-03-18T09:33:59.829Z,3.20
2019-03-18T09:36:27.709Z,3.50
2019-03-18T09:38:55.669Z,3.00
2019-03-18T09:41:23.001Z,3.20
2019-03-18T09:43:50.804Z,3.30
2019-03-18T09:46:18.251Z,3.20
2019-03-18T09:48:45.619Z,2.77
2019-03-18T09:51:12.856Z,3.87
2019-03-18T09:53:40.005Z,2.60
2019-03-18T09:56:07.247Z,3.67
2019-03-18T09:58:34.427Z,3.87
2019-03-18T10:01:01.800Z,3.77
2019-03-18T10:03:28.966Z,2.60
2019-03-18T10:05:56.196Z,3.87
2019-03-18T10:08:25.192Z,2.77
2019-03-18T10:10:52.566Z,3.43
2019-03-18T10:13:19.753Z,3.93
2019-03-18T10:15:46.978Z,3.90
2019-03-18T10:18:18.493Z,3.63
2019-03-18T10:20:45.694Z,3.10
2019-03-18T10:23:12.918Z,3.50
2019-03-18T10:25:40.110Z,3.73
2019-03-18T10:28:07.330Z,3.73
2019-03-18T10:30:34.530Z,3.17
2019-03-18T10:33:01.857Z,3.20
2019-03-18T10:35:29.075Z,3.57
2019-03-18T10:37:56.274Z,2.93
2019-03-18T10:40:23.500Z,3.67
2019-03-18T10:42:50.686Z,3.60
2019-03-18T10:45:17.890Z,3.13
2019-03-18T10:47:45.126Z,3.87
2019-03-18T10:50:12.449Z,3.07
2019-03-18T10:52:39.802Z,3.47
2019-03-18T10:55:07.460Z,3.70
2019-03-18T10:57:34.669Z,3.50
2019-03-18T11:00:01.977Z,3.17
2019-03-18T11:02:29.204Z,3.93
2019-03-18T11:04:56.482Z,3.30
2019-03-18T11:07:23.702Z,2.93
2019-03-18T11:09:50.900Z,2.87
2019-03-18T11:12:18.156Z,2.50
2019-03-18T11:14:45.403Z,2.77
2019-03-18T11:17:12.675Z,3.57
2019-03-18T11:19:39.905Z,3.33
2019-03-18T11:22:07.136Z,3.17
2019-03-18T11:24:34.313Z,2.77
2019-03-18T11:27:01.524Z,3.23
2019-03-18T11:29:28.770Z,2.90
2019-03-18T11:31:57.153Z,2.70
2019-03-18T11:34:25.154Z,2.77
2019-03-18T11:36:52.489Z,2.90
2019-03-18T11:39:19.863Z,3.53
2019-03-18T11:41:56.082Z,3.70
2019-03-18T11:44:23.570Z,3.70
2019-03-18T11:46:50.812Z,3.97
2019-03-18T11:49:18.122Z,3.70
2019-03-18T11:51:45.450Z,3.73
2019-03-18T11:54:12.710Z,4.23
2019-03-18T12:00:16.585Z,3.73
2019-03-18T12:02:43.953Z,4.20
2019-03-18T12:05:13.014Z,3.90
2019-03-18T12:07:40.270Z,4.03
2019-03-18T12:10:09.430Z,3.23
2019-03-18T12:12:36.643Z,3.33
2019-03-18T12:15:04.770Z,3.50
2019-03-18T12:17:32.112Z,4.13
2019-03-18T12:19:59.336Z,3.27
2019-03-18T12:22:26.505Z,4.60
2019-03-18T12:24:53.750Z,3.67
2019-03-18T12:27:20.928Z,5.00
2019-03-18T12:29:52.555Z,4.50
2019-03-18T12:32:19.886Z,3.50
2019-03-18T12:34:47.062Z,4.17
2019-03-18T12:37:14.342Z,3.93
2019-03-18T12:39:41.547Z,3.70
2019-03-18T12:42:09.500Z,3.57
2019-03-18T12:44:36.691Z,3.27
2019-03-18T12:47:03.894Z,3.77
2019-03-18T12:49:31.202Z,4.70
2019-03-18T12:51:59.926Z,3.37
2019-03-18T12:54:27.727Z,3.50
2019-03-18T12:56:55.054Z,3.23
2019-03-18T12:59:22.232Z,3.40
2019-03-18T13:01:49.470Z,3.17
2019-03-18T13:04:16.711Z,3.57
2019-03-18T13:06:43.963Z,3.20
2019-03-18T13:09:11.159Z,3.70
2019-03-18T13:11:39.264Z,4.30
2019-03-18T13:14:06.586Z,3.17
2019-03-18T13:16:33.781Z,3.90
2019-03-18T13:19:01.080Z,3.60
2019-03-18T13:21:30.694Z,4.20
2019-03-18T13:23:57.463Z,3.70
2019-03-18T13:26:24.906Z,3.50
2019-03-18T13:28:52.110Z,4.17
2019-03-18T13:31:19.387Z,3.13
2019-03-18T13:33:46.575Z,3.17
2019-03-18T13:36:16.102Z,3.37
2019-03-18T13:38:43.338Z,3.47
2019-03-18T13:41:10.715Z,4.37
2019-03-18T13:43:37.899Z,4.50
2019-03-18T13:46:05.156Z,4.90
2019-03-18T13:48:32.398Z,4.07
2019-03-18T13:50:59.591Z,3.23
2019-03-18T13:53:26.843Z,3.50
2019-03-18T13:55:54.015Z,4.87
2019-03-18T13:58:21.170Z,3.50
2019-03-18T14:00:48.407Z,4.67
2019-03-18T14:03:15.710Z,4.10
2019-03-18T14:05:42.959Z,4.67
2019-03-18T14:08:10.249Z,4.10
2019-03-18T14:10:37.421Z,3.63
2019-03-18T14:13:04.655Z,3.60
2019-03-18T14:15:31.906Z,3.90
2019-03-18T14:17:59.171Z,4.27
2019-03-18T14:20:26.450Z,3.90
2019-03-18T14:22:53.648Z,4.13
2019-03-18T14:25:20.909Z,4.40
2019-03-18T14:27:48.245Z,3.80
2019-03-18T14:30:15.537Z,3.70
2019-03-18T14:32:42.739Z,4.17
2019-03-18T14:35:09.942Z,4.37
2019-03-18T14:37:37.142Z,3.90
2019-03-18T14:40:05.266Z,3.70
2019-03-18T14:42:32.531Z,3.73
2019-03-18T14:45:00.607Z,3.53
2019-03-18T14:47:27.823Z,3.60
2019-03-18T14:49:55.014Z,4.00
2019-03-18T14:52:22.253Z,3.70
2019-03-18T14:54:49.475Z,3.83
2019-03-18T14:57:16.710Z,3.97
2019-03-18T14:59:43.963Z,3.27
2019-03-18T15:02:11.180Z,3.57
2019-03-18T15:04:38.427Z,3.90
2019-03-18T15:07:05.594Z,3.40
2019-03-18T15:09:32.795Z,3.40
2019-03-18T15:12:00.021Z,3.10
2019-03-18T15:14:27.263Z,3.70
2019-03-18T15:16:54.458Z,3.53
2019-03-18T15:19:21.655Z,3.67
2019-03-18T15:21:57.960Z,3.70
2019-03-18T15:24:17.929Z,3.30
2019-03-18T15:26:45.126Z,2.90
2019-03-18T15:29:12.319Z,3.13
2019-03-18T15:31:39.653Z,2.87
2019-03-18T15:34:06.859Z,3.37
2019-03-18T15:36:34.070Z,3.50
2019-03-18T15:39:02.350Z,3.20
2019-03-18T15:41:29.579Z,4.23
2019-03-18T15:43:56.785Z,3.07
2019-03-18T15:46:24.010Z,3.40
2019-03-18T15:48:51.247Z,2.80
2019-03-18T15:51:18.422Z,3.53
2019-03-18T15:53:45.743Z,3.30
2019-03-18T15:56:12.946Z,3.20
2019-03-18T15:58:40.160Z,3.70
2019-03-18T16:01:07.486Z,3.57
2019-03-18T16:03:34.651Z,2.70
2019-03-18T16:06:01.869Z,3.20
2019-03-18T16:08:29.141Z,3.00
2019-03-18T16:10:56.344Z,2.70
2019-03-18T16:13:23.524Z,3.60
2019-03-18T16:15:50.768Z,2.90
2019-03-18T16:18:17.971Z,3.73
2019-03-18T16:20:45.143Z,3.70
2019-03-18T16:23:12.391Z,3.60
2019-03-18T16:25:39.569Z,3.00
2019-03-18T16:28:06.983Z,3.60
2019-03-18T16:30:34.206Z,3.60
2019-03-18T16:33:01.402Z,2.73
2019-03-18T16:35:28.620Z,3.07
2019-03-18T16:37:55.848Z,3.27
2019-03-18T16:40:23.143Z,3.27
2019-03-18T16:42:50.321Z,3.77
2019-03-18T16:45:17.561Z,3.53
2019-03-18T16:47:44.736Z,3.17
2019-03-18T16:50:22.354Z,3.27
2019-03-18T16:52:49.606Z,3.00
2019-03-18T16:56:43.066Z,2.47
2019-03-18T16:59:10.245Z,3.47
2019-03-18T17:01:37.535Z,2.93
2019-03-18T17:04:04.714Z,3.30
2019-03-18T17:06:32.080Z,2.77
2019-03-18T17:08:59.275Z,3.10
2019-03-18T17:11:26.478Z,2.43
2019-03-18T17:13:53.759Z,3.30
2019-03-18T17:16:20.935Z,3.17
2019-03-18T17:18:48.287Z,3.43
2019-03-18T17:21:15.584Z,3.37
2019-03-18T17:23:42.794Z,3.70
2019-03-18T17:26:10.132Z,3.00
2019-03-18T17:28:37.576Z,3.70
2019-03-18T17:31:05.068Z,3.00
2019-03-18T17:33:32.329Z,3.67
2019-03-18T17:35:59.548Z,4.10
2019-03-18T17:38:26.847Z,3.40
2019-03-18T17:40:54.165Z,3.53
2019-03-18T17:43:21.505Z,3.40
2019-03-18T17:45:49.773Z,3.67
2019-03-18T17:48:18.672Z,3.23
2019-03-18T17:50:46.166Z,3.30
2019-03-18T17:53:13.795Z,2.40
2019-03-18T17:55:42.546Z,4.20
2019-03-18T17:58:09.929Z,3.17
2019-03-18T18:00:43.380Z,3.17
2019-03-18T18:03:10.606Z,2.30
2019-03-18T18:05:37.831Z,3.07
2019-03-18T18:08:05.000Z,2.67
2019-03-18T18:10:32.243Z,3.00
2019-03-18T18:12:59.427Z,2.70
2019-03-18T18:15:26.665Z,2.60
2019-03-18T18:17:53.866Z,3.40
2019-03-18T18:20:21.056Z,2.87
2019-03-18T18:22:48.300Z,3.07
2019-03-18T18:25:15.514Z,2.60
2019-03-18T18:27:42.695Z,3.70
2019-03-18T18:30:09.911Z,3.23
2019-03-18T18:32:37.089Z,2.70
2019-03-18T18:35:05.198Z,2.77
2019-03-18T18:37:32.411Z,2.70
2019-03-18T18:39:59.643Z,2.80
2019-03-18T18:42:27.006Z,2.33
2019-03-18T18:44:54.181Z,3.20
2019-03-18T18:47:21.386Z,2.60
2019-03-18T18:49:48.722Z,2.80
2019-03-18T18:52:15.969Z,3.60
2019-03-18T18:54:43.179Z,3.70
2019-03-18T18:57:10.383Z,3.43
2019-03-18T18:59:37.581Z,3.00
2019-03-18T19:02:04.763Z,2.73
2019-03-18T19:04:32.029Z,2.70
2019-03-18T19:06:59.251Z,3.10
2019-03-18T19:09:26.440Z,2.50
2019-03-18T19:11:53.703Z,2.93
2019-03-18T19:14:20.931Z,4.13
2019-03-18T19:16:48.147Z,3.10
2019-03-18T19:19:15.347Z,3.50
2019-03-18T19:21:42.767Z,3.00
2019-03-18T19:24:11.584Z,2.67
2019-03-18T19:26:39.007Z,3.70
2019-03-18T19:29:06.251Z,2.50
2019-03-18T19:31:33.443Z,3.17
2019-03-18T19:34:00.635Z,2.30
2019-03-18T19:36:27.856Z,3.17
2019-03-18T19:38:55.111Z,3.10
2019-03-18T19:41:22.351Z,2.90
2019-03-18T19:43:49.572Z,3.60
2019-03-18T19:46:16.801Z,2.93
2019-03-18T19:48:43.966Z,3.20
2019-03-18T19:51:11.211Z,2.80
2019-03-18T19:53:48.571Z,2.73
2019-03-18T19:56:07.579Z,2.70
2019-03-18T19:58:34.736Z,2.70
2019-03-18T20:01:01.979Z,2.80
2019-03-18T20:03:29.545Z,3.20
2019-03-18T20:05:56.759Z,3.23
2019-03-18T20:08:24.021Z,3.13
2019-03-18T20:10:51.273Z,2.60
2019-03-18T20:13:18.484Z,2.87
2019-03-18T20:15:45.739Z,3.37
2019-03-18T20:18:12.926Z,3.03
2019-03-18T20:20:40.145Z,4.73
2019-03-18T20:23:07.436Z,4.37
2019-03-18T20:25:34.605Z,3.03
2019-03-18T20:28:01.847Z,3.23
2019-03-18T20:30:29.037Z,2.33
2019-03-18T20:32:56.241Z,3.10
2019-03-18T20:35:23.535Z,2.80
2019-03-18T20:37:52.123Z,2.93
2019-03-18T20:40:19.721Z,2.40
2019-03-18T20:42:47.052Z,2.90
2019-03-18T20:45:15.750Z,3.13
2019-03-18T20:47:43.039Z,2.60
2019-03-18T20:50:12.473Z,3.33
2019-03-18T20:52:39.638Z,3.20
2019-03-18T20:55:07.762Z,3.03
2019-03-18T20:57:35.118Z,2.67
2019-03-18T21:00:03.291Z,2.60
2019-03-18T21:02:30.487Z,3.07
2019-03-18T21:04:57.672Z,2.50
2019-03-18T21:07:25.060Z,3.03
2019-03-18T21:09:53.125Z,3.10
2019-03-18T21:12:20.360Z,3.23
2019-03-18T21:14:47.738Z,3.20
2019-03-18T21:17:14.903Z,3.20
2019-03-18T21:19:42.158Z,2.70
2019-03-18T21:22:09.388Z,2.87
2019-03-18T21:24:36.672Z,2.77
2019-03-18T21:27:04.166Z,3.07
2019-03-18T21:29:31.395Z,2.90
2019-03-18T21:31:59.011Z,3.23
2019-03-18T21:34:26.311Z,2.90
2019-03-18T21:36:53.876Z,3.80
2019-03-18T21:39:21.154Z,2.90
2019-03-18T21:41:48.820Z,2.70
2019-03-18T21:44:16.127Z,3.47
2019-03-18T21:46:43.641Z,2.90
2019-03-18T21:49:11.981Z,3.07
2019-03-18T21:51:39.362Z,2.93
2019-03-18T21:54:06.606Z,2.60
2019-03-18T21:56:33.833Z,2.60
2019-03-18T21:59:02.000Z,2.70
2019-03-18T22:01:29.373Z,3.07
2019-03-18T22:03:56.583Z,2.23
2019-03-18T22:06:23.953Z,2.43
2019-03-18T22:08:51.167Z,2.60
2019-03-18T22:11:18.337Z,2.77
2019-03-18T22:13:45.640Z,2.40
2019-03-18T22:16:12.951Z,3.33
2019-03-18T22:18:40.264Z,2.30
2019-03-18T22:21:07.707Z,2.70
2019-03-18T22:23:35.023Z,2.83
2019-03-18T22:26:04.651Z,2.77
2019-03-18T22:28:31.881Z,3.27
2019-03-18T22:30:59.132Z,2.10
2019-03-18T22:33:26.367Z,3.03
2019-03-18T22:35:53.600Z,2.70
2019-03-18T22:38:20.802Z,2.17
2019-03-18T22:40:48.186Z,2.10
2019-03-18T22:43:15.396Z,2.03
2019-03-18T22:45:42.775Z,3.03
2019-03-18T22:48:10.155Z,2.30
2019-03-18T22:50:37.359Z,2.47
2019-03-18T22:53:04.678Z,1.90
2019-03-18T22:55:31.992Z,2.33
2019-03-18T22:57:59.381Z,2.07
2019-03-18T23:00:58.377Z,2.30
2019-03-18T23:03:25.557Z,2.30
2019-03-18T23:05:52.808Z,2.30
2019-03-18T23:08:20.170Z,2.63
2019-03-18T23:10:47.438Z,3.40
2019-03-18T23:13:14.656Z,2.70
2019-03-18T23:15:42.106Z,2.77
2019-03-18T23:18:09.250Z,2.33
2019-03-18T23:20:36.571Z,2.60
2019-03-18T23:23:03.911Z,2.73
2019-03-18T23:25:31.094Z,2.80
2019-03-18T23:27:58.302Z,2.60
2019-03-18T23:30:25.511Z,2.50
2019-03-18T23:32:52.707Z,2.27
2019-03-18T23:35:20.073Z,2.07
2019-03-18T23:37:47.258Z,2.57
2019-03-18T23:40:14.683Z,2.67
2019-03-18T23:42:42.114Z,3.03
2019-03-18T23:45:09.497Z,2.33
2019-03-18T23:47:38.036Z,2.13
2019-03-18T23:50:05.633Z,1.90
2019-03-18T23:52:32.997Z,2.50
2019-03-18T23:55:00.289Z,3.17
2019-03-18T23:57:28.763Z,2.03
2019-03-18T23:59:56.077Z,2.10
